createdAt,value
2017-12-31T00:00:13.319Z,997.68
2017-12-31T00:01:13.304Z,997.70
2017-12-31T00:02:13.284Z,997.72
2017-12-31T00:03:13.269Z,997.72
2017-12-31T00:04:13.248Z,997.72
2017-12-31T00:05:13.239Z,997.73
2017-12-31T00:06:13.213Z,997.78
2017-12-31T00:07:13.190Z,997.78
2017-12-31T00:08:13.173Z,997.82
2017-12-31T00:09:13.154Z,997.76
2017-12-31T00:10:13.224Z,997.78
2017-12-31T00:11:13.119Z,997.81
2017-12-31T00:12:13.099Z,997.82
2017-12-31T00:13:13.111Z,997.77
2017-12-31T00:14:13.064Z,997.80
2017-12-31T00:15:13.055Z,997.77
2017-12-31T00:16:13.028Z,997.76
2017-12-31T00:17:13.004Z,997.79
2017-12-31T00:18:12.987Z,997.76
2017-12-31T00:19:12.975Z,997.72
2017-12-31T00:20:12.955Z,997.69
2017-12-31T00:21:12.944Z,997.70
2017-12-31T00:22:12.924Z,997.73
2017-12-31T00:23:12.904Z,997.66
2017-12-31T00:24:12.884Z,997.61
2017-12-31T00:25:12.871Z,997.64
2017-12-31T00:26:12.841Z,997.61
2017-12-31T00:27:12.837Z,997.60
2017-12-31T00:28:12.803Z,997.53
2017-12-31T00:29:12.786Z,997.56
2017-12-31T00:30:12.766Z,997.55
2017-12-31T00:31:12.746Z,997.57
2017-12-31T00:32:12.735Z,997.58
2017-12-31T00:33:12.712Z,997.58
2017-12-31T00:34:12.689Z,997.57
2017-12-31T00:35:12.672Z,997.58
2017-12-31T00:36:12.654Z,997.52
2017-12-31T00:37:12.791Z,997.50
2017-12-31T00:38:12.620Z,997.47
2017-12-31T00:39:12.599Z,997.50
2017-12-31T00:40:12.673Z,997.45
2017-12-31T00:41:12.562Z,997.48
2017-12-31T00:42:12.543Z,997.50
2017-12-31T00:43:12.529Z,997.50
2017-12-31T00:44:12.509Z,997.49
2017-12-31T00:45:12.490Z,997.54
2017-12-31T00:46:12.470Z,997.59
2017-12-31T00:47:12.450Z,997.62
2017-12-31T00:48:12.434Z,997.68
2017-12-31T00:49:12.417Z,997.70
2017-12-31T00:50:12.399Z,997.69
2017-12-31T00:51:12.386Z,997.71
2017-12-31T00:52:12.361Z,997.72
2017-12-31T00:53:12.341Z,997.75
2017-12-31T00:54:12.321Z,997.72
2017-12-31T00:55:12.309Z,997.71
2017-12-31T00:56:12.289Z,997.73
2017-12-31T00:57:12.269Z,997.72
2017-12-31T00:58:12.257Z,997.71
2017-12-31T00:59:12.296Z,997.72
2017-12-31T01:00:12.209Z,997.74
2017-12-31T01:01:12.199Z,997.69
2017-12-31T01:02:12.176Z,997.71
2017-12-31T01:03:12.155Z,997.71
2017-12-31T01:04:12.154Z,997.69
2017-12-31T01:05:12.119Z,997.70
2017-12-31T01:06:12.110Z,997.71
2017-12-31T01:07:12.084Z,997.68
2017-12-31T01:08:12.068Z,997.65
2017-12-31T01:09:12.045Z,997.71
2017-12-31T01:10:12.025Z,997.74
2017-12-31T01:11:12.010Z,997.74
2017-12-31T01:12:11.995Z,997.74
2017-12-31T01:13:11.975Z,997.76
2017-12-31T01:14:11.955Z,997.70
2017-12-31T01:15:11.938Z,997.71
2017-12-31T01:16:11.925Z,997.76
2017-12-31T01:17:11.907Z,997.76
2017-12-31T01:18:11.885Z,997.77
2017-12-31T01:19:11.864Z,997.75
2017-12-31T01:20:11.847Z,997.78
2017-12-31T01:21:11.834Z,997.79
2017-12-31T01:22:11.809Z,997.80
2017-12-31T01:23:11.789Z,997.75
2017-12-31T01:24:11.773Z,997.78
2017-12-31T01:25:11.752Z,997.72
2017-12-31T01:26:11.864Z,997.73
2017-12-31T01:27:11.718Z,997.75
2017-12-31T01:28:11.706Z,997.72
2017-12-31T01:29:11.782Z,997.74
2017-12-31T01:30:11.663Z,997.73
2017-12-31T01:31:11.653Z,997.77
2017-12-31T01:32:11.632Z,997.73
2017-12-31T01:33:11.621Z,997.69
2017-12-31T01:34:11.592Z,997.70
2017-12-31T01:35:11.574Z,997.74
2017-12-31T01:36:11.553Z,997.74
2017-12-31T01:37:11.534Z,997.69
2017-12-31T01:38:11.516Z,997.67
2017-12-31T01:39:11.495Z,997.64
2017-12-31T01:40:11.481Z,997.71
2017-12-31T01:41:11.462Z,997.69
2017-12-31T01:42:11.443Z,997.65
2017-12-31T01:43:11.425Z,997.65
2017-12-31T01:44:11.414Z,997.64
2017-12-31T01:45:11.396Z,997.64
2017-12-31T01:46:11.372Z,997.63
2017-12-31T01:47:11.352Z,997.63
2017-12-31T01:48:11.366Z,997.70
2017-12-31T01:49:11.317Z,997.68
2017-12-31T01:50:11.301Z,997.67
2017-12-31T01:51:11.290Z,997.65
2017-12-31T01:52:11.262Z,997.64
2017-12-31T01:53:11.242Z,997.64
2017-12-31T01:54:11.221Z,997.68
2017-12-31T01:55:11.209Z,997.63
2017-12-31T01:56:11.200Z,997.63
2017-12-31T01:57:11.172Z,997.63
2017-12-31T01:58:11.155Z,997.68
2017-12-31T01:59:11.141Z,997.68
2017-12-31T02:00:11.114Z,997.73
2017-12-31T02:01:11.142Z,997.67
2017-12-31T02:02:11.077Z,997.71
2017-12-31T02:03:11.061Z,997.74
2017-12-31T02:04:11.039Z,997.80
2017-12-31T02:05:11.020Z,997.81
2017-12-31T02:06:11.006Z,997.83
2017-12-31T02:07:10.993Z,997.81
2017-12-31T02:08:10.978Z,997.82
2017-12-31T02:09:10.946Z,997.87
2017-12-31T02:10:10.929Z,997.85
2017-12-31T02:11:10.912Z,997.84
2017-12-31T02:12:10.909Z,997.82
2017-12-31T02:13:10.877Z,997.81
2017-12-31T02:14:10.857Z,997.81
2017-12-31T02:15:10.855Z,997.81
2017-12-31T02:16:10.818Z,997.79
2017-12-31T02:17:10.801Z,997.76
2017-12-31T02:18:10.807Z,997.78
2017-12-31T02:19:10.795Z,997.78
2017-12-31T02:20:10.756Z,997.72
2017-12-31T02:21:10.740Z,997.75
2017-12-31T02:22:10.719Z,997.74
2017-12-31T02:23:10.692Z,997.74
2017-12-31T02:24:10.676Z,997.76
2017-12-31T02:25:10.655Z,997.72
2017-12-31T02:26:10.641Z,997.75
2017-12-31T02:27:10.620Z,997.75
2017-12-31T02:28:10.599Z,997.68
2017-12-31T02:29:10.584Z,997.69
2017-12-31T02:30:10.575Z,997.73
2017-12-31T02:31:10.546Z,997.71
2017-12-31T02:32:10.527Z,997.68
2017-12-31T02:33:10.509Z,997.64
2017-12-31T02:34:10.490Z,997.67
2017-12-31T02:35:10.473Z,997.66
2017-12-31T02:36:10.459Z,997.63
2017-12-31T02:37:10.530Z,997.64
2017-12-31T02:38:10.422Z,997.62
2017-12-31T02:39:10.403Z,997.55
2017-12-31T02:40:10.384Z,997.50
2017-12-31T02:41:10.375Z,997.52
2017-12-31T02:42:10.344Z,997.50
2017-12-31T02:43:10.325Z,997.52
2017-12-31T02:44:10.308Z,997.48
2017-12-31T02:45:10.287Z,997.45
2017-12-31T02:46:10.277Z,997.45
2017-12-31T02:47:10.251Z,997.44
2017-12-31T02:48:10.234Z,997.46
2017-12-31T02:49:10.213Z,997.43
2017-12-31T02:50:10.209Z,997.53
2017-12-31T02:51:10.182Z,997.48
2017-12-31T02:52:10.172Z,997.45
2017-12-31T02:53:10.140Z,997.46
2017-12-31T02:54:10.124Z,997.45
2017-12-31T02:55:10.113Z,997.41
2017-12-31T02:56:10.091Z,997.44
2017-12-31T02:57:10.072Z,997.45
2017-12-31T02:58:10.050Z,997.44
2017-12-31T02:59:10.030Z,997.40
2017-12-31T03:00:10.020Z,997.40
2017-12-31T03:01:09.993Z,997.36
2017-12-31T03:02:09.976Z,997.36
2017-12-31T03:03:09.968Z,997.34
2017-12-31T03:04:09.953Z,997.38
2017-12-31T03:05:09.918Z,997.32
2017-12-31T03:06:09.902Z,997.28
2017-12-31T03:07:09.950Z,997.25
2017-12-31T03:08:09.868Z,997.22
2017-12-31T03:09:09.845Z,997.20
2017-12-31T03:10:09.828Z,997.21
2017-12-31T03:11:09.819Z,997.20
2017-12-31T03:12:09.829Z,997.24
2017-12-31T03:13:09.776Z,997.22
2017-12-31T03:14:09.759Z,997.20
2017-12-31T03:15:09.738Z,997.19
2017-12-31T03:16:09.720Z,997.17
2017-12-31T03:17:09.699Z,997.13
2017-12-31T03:18:09.681Z,997.12
2017-12-31T03:19:09.663Z,997.10
2017-12-31T03:20:09.647Z,997.13
2017-12-31T03:21:09.627Z,997.11
2017-12-31T03:22:09.618Z,997.15
2017-12-31T03:23:09.590Z,997.12
2017-12-31T03:24:09.569Z,997.10
2017-12-31T03:25:09.551Z,997.08
2017-12-31T03:26:09.541Z,997.09
2017-12-31T03:27:09.517Z,997.11
2017-12-31T03:28:09.496Z,997.11
2017-12-31T03:29:09.517Z,997.11
2017-12-31T03:30:09.477Z,997.12
2017-12-31T03:31:09.442Z,997.13
2017-12-31T03:32:09.429Z,997.10
2017-12-31T03:33:09.405Z,997.11
2017-12-31T03:34:09.396Z,997.09
2017-12-31T03:35:09.367Z,997.04
2017-12-31T03:36:09.348Z,997.03
2017-12-31T03:37:09.330Z,997.01
2017-12-31T03:38:09.309Z,997.04
2017-12-31T03:39:09.294Z,997.00
2017-12-31T03:40:09.274Z,996.97
2017-12-31T03:41:09.261Z,996.97
2017-12-31T03:42:09.237Z,997.03
2017-12-31T03:43:09.218Z,997.01
2017-12-31T03:44:09.204Z,996.98
2017-12-31T03:45:09.183Z,996.95
2017-12-31T03:46:09.173Z,996.92
2017-12-31T03:47:09.147Z,996.87
2017-12-31T03:48:09.126Z,996.81
2017-12-31T03:49:09.109Z,996.81
2017-12-31T03:50:09.093Z,996.81
2017-12-31T03:51:09.072Z,996.82
2017-12-31T03:52:09.053Z,996.81
2017-12-31T03:53:09.141Z,996.79
2017-12-31T03:54:09.026Z,996.81
2017-12-31T03:55:08.999Z,996.80
2017-12-31T03:56:09.083Z,996.75
2017-12-31T03:57:08.962Z,996.70
2017-12-31T03:58:08.947Z,996.66
2017-12-31T03:59:08.927Z,996.64
2017-12-31T04:00:08.916Z,996.64
2017-12-31T04:01:08.887Z,996.61
2017-12-31T04:02:08.872Z,996.63
2017-12-31T04:03:08.852Z,996.60
2017-12-31T04:04:08.831Z,996.66
2017-12-31T04:05:08.813Z,996.64
2017-12-31T04:06:08.797Z,996.63
2017-12-31T04:07:08.775Z,996.60
2017-12-31T04:08:08.755Z,996.56
2017-12-31T04:09:08.740Z,996.51
2017-12-31T04:10:08.721Z,996.51
2017-12-31T04:11:08.704Z,996.50
2017-12-31T04:12:08.682Z,996.50
2017-12-31T04:13:08.668Z,996.52
2017-12-31T04:14:08.651Z,996.50
2017-12-31T04:15:08.698Z,996.49
2017-12-31T04:16:08.610Z,996.45
2017-12-31T04:17:08.590Z,996.45
2017-12-31T04:18:08.576Z,996.48
2017-12-31T04:19:08.555Z,996.42
2017-12-31T04:20:08.536Z,996.38
2017-12-31T04:21:08.520Z,996.33
2017-12-31T04:22:08.507Z,996.38
2017-12-31T04:23:08.478Z,996.37
2017-12-31T04:24:08.462Z,996.39
2017-12-31T04:25:08.441Z,996.33
2017-12-31T04:26:08.419Z,996.29
2017-12-31T04:27:08.403Z,996.31
2017-12-31T04:28:08.396Z,996.27
2017-12-31T04:29:08.369Z,996.23
2017-12-31T04:30:08.348Z,996.18
2017-12-31T04:31:08.332Z,996.20
2017-12-31T04:32:08.310Z,996.18
2017-12-31T04:33:08.293Z,996.19
2017-12-31T04:34:08.271Z,996.14
2017-12-31T04:35:08.254Z,996.14
2017-12-31T04:36:08.238Z,996.14
2017-12-31T04:37:08.216Z,996.09
2017-12-31T04:38:08.197Z,996.10
2017-12-31T04:39:08.180Z,996.09
2017-12-31T04:40:08.157Z,996.08
2017-12-31T04:41:08.138Z,996.13
2017-12-31T04:42:08.135Z,996.07
2017-12-31T04:43:08.106Z,996.03
2017-12-31T04:44:08.085Z,996.04
2017-12-31T04:45:08.079Z,996.04
2017-12-31T04:46:08.045Z,996.07
2017-12-31T04:47:08.026Z,996.03
2017-12-31T04:48:08.007Z,995.99
2017-12-31T04:49:07.987Z,996.01
2017-12-31T04:50:07.969Z,995.99
2017-12-31T04:51:07.950Z,996.00
2017-12-31T04:52:07.942Z,995.99
2017-12-31T04:53:07.920Z,995.96
2017-12-31T04:54:07.893Z,995.97
2017-12-31T04:55:07.896Z,995.95
2017-12-31T04:56:07.858Z,995.91
2017-12-31T04:57:07.835Z,995.95
2017-12-31T04:58:07.818Z,995.91
2017-12-31T04:59:07.799Z,995.97
2017-12-31T05:00:07.783Z,995.90
2017-12-31T05:01:07.762Z,995.91
2017-12-31T05:02:07.744Z,995.94
2017-12-31T05:03:07.724Z,995.96
2017-12-31T05:04:07.738Z,995.94
2017-12-31T05:05:07.685Z,995.95
2017-12-31T05:06:07.667Z,995.93
2017-12-31T05:07:07.703Z,995.92
2017-12-31T05:08:07.640Z,995.96
2017-12-31T05:09:07.612Z,995.91
2017-12-31T05:10:07.592Z,995.92
2017-12-31T05:11:07.572Z,995.92
2017-12-31T05:12:07.552Z,995.93
2017-12-31T05:13:07.535Z,995.89
2017-12-31T05:14:07.514Z,995.89
2017-12-31T05:15:07.497Z,995.90
2017-12-31T05:16:07.477Z,995.86
2017-12-31T05:17:07.463Z,995.87
2017-12-31T05:18:07.441Z,995.86
2017-12-31T05:19:07.419Z,995.88
2017-12-31T05:20:07.401Z,995.85
2017-12-31T05:21:07.380Z,995.82
2017-12-31T05:22:07.360Z,995.83
2017-12-31T05:23:07.342Z,995.78
2017-12-31T05:24:07.327Z,995.76
2017-12-31T05:25:07.313Z,995.78
2017-12-31T05:26:07.284Z,995.80
2017-12-31T05:27:07.269Z,995.79
2017-12-31T05:28:07.247Z,995.74
2017-12-31T05:29:07.230Z,995.73
2017-12-31T05:30:07.235Z,995.66
2017-12-31T05:31:07.200Z,995.69
2017-12-31T05:32:07.171Z,995.72
2017-12-31T05:33:07.151Z,995.69
2017-12-31T05:34:07.214Z,995.61
2017-12-31T05:35:07.113Z,995.65
2017-12-31T05:36:07.095Z,995.66
2017-12-31T05:37:07.081Z,995.65
2017-12-31T05:38:07.057Z,995.62
2017-12-31T05:39:07.043Z,995.66
2017-12-31T05:40:07.020Z,995.61
2017-12-31T05:41:07.021Z,995.67
2017-12-31T05:42:06.980Z,995.64
2017-12-31T05:43:06.962Z,995.64
2017-12-31T05:44:06.947Z,995.64
2017-12-31T05:45:06.923Z,995.66
2017-12-31T05:46:06.906Z,995.65
2017-12-31T05:47:06.887Z,995.65
2017-12-31T05:48:06.866Z,995.64
2017-12-31T05:49:06.846Z,995.62
2017-12-31T05:50:06.844Z,995.66
2017-12-31T05:51:06.808Z,995.67
2017-12-31T05:52:06.791Z,995.64
2017-12-31T05:53:06.778Z,995.63
2017-12-31T05:54:06.751Z,995.59
2017-12-31T05:55:06.739Z,995.56
2017-12-31T05:56:06.808Z,995.56
2017-12-31T05:57:06.711Z,995.51
2017-12-31T05:58:06.675Z,995.60
2017-12-31T05:59:06.678Z,995.53
2017-12-31T06:00:06.638Z,995.61
2017-12-31T06:01:06.624Z,995.48
2017-12-31T06:02:06.605Z,995.60
2017-12-31T06:03:06.584Z,995.57
2017-12-31T06:04:06.563Z,995.53
2017-12-31T06:05:06.546Z,995.56
2017-12-31T06:06:06.530Z,995.47
2017-12-31T06:07:06.507Z,995.49
2017-12-31T06:08:06.488Z,995.52
2017-12-31T06:09:06.479Z,995.47
2017-12-31T06:10:06.453Z,995.46
2017-12-31T06:11:06.434Z,995.45
2017-12-31T06:12:06.414Z,995.42
2017-12-31T06:13:06.394Z,995.46
2017-12-31T06:14:06.376Z,995.41
2017-12-31T06:15:06.357Z,995.35
2017-12-31T06:16:06.338Z,995.42
2017-12-31T06:17:06.322Z,995.36
2017-12-31T06:18:06.302Z,995.34
2017-12-31T06:19:06.286Z,995.39
2017-12-31T06:20:06.261Z,995.38
2017-12-31T06:21:06.245Z,995.38
2017-12-31T06:22:06.226Z,995.41
2017-12-31T06:23:06.261Z,995.37
2017-12-31T06:24:06.187Z,995.33
2017-12-31T06:25:06.171Z,995.34
2017-12-31T06:26:06.302Z,995.31
2017-12-31T06:27:06.131Z,995.39
2017-12-31T06:28:06.121Z,995.35
2017-12-31T06:29:06.096Z,995.31
2017-12-31T06:30:06.076Z,995.36
2017-12-31T06:31:06.056Z,995.38
2017-12-31T06:32:06.041Z,995.27
2017-12-31T06:33:06.021Z,995.27
2017-12-31T06:34:06.000Z,995.36
2017-12-31T06:35:06.012Z,995.30
2017-12-31T06:36:05.964Z,995.34
2017-12-31T06:37:05.944Z,995.30
2017-12-31T06:38:05.930Z,995.33
2017-12-31T06:39:05.909Z,995.29
2017-12-31T06:40:05.889Z,995.33
2017-12-31T06:41:05.871Z,995.35
2017-12-31T06:42:05.854Z,995.32
2017-12-31T06:43:05.834Z,995.32
2017-12-31T06:44:05.818Z,995.34
2017-12-31T06:45:05.940Z,995.34
2017-12-31T06:46:05.779Z,995.29
2017-12-31T06:47:05.760Z,995.36
2017-12-31T06:48:05.830Z,995.33
2017-12-31T06:49:05.725Z,995.39
2017-12-31T06:50:05.706Z,995.33
2017-12-31T06:51:05.686Z,995.39
2017-12-31T06:52:05.669Z,995.40
2017-12-31T06:53:05.646Z,995.34
2017-12-31T06:54:05.628Z,995.31
2017-12-31T06:55:05.610Z,995.47
2017-12-31T06:56:05.593Z,995.45
2017-12-31T06:57:05.575Z,995.44
2017-12-31T06:58:05.562Z,995.43
2017-12-31T06:59:05.536Z,995.32
2017-12-31T07:00:05.520Z,995.32
2017-12-31T07:01:05.499Z,995.46
2017-12-31T07:02:05.481Z,995.39
2017-12-31T07:03:05.465Z,995.42
2017-12-31T07:04:05.446Z,995.36
2017-12-31T07:05:05.430Z,995.41
2017-12-31T07:06:05.417Z,995.35
2017-12-31T07:07:05.388Z,995.23
2017-12-31T07:08:05.379Z,995.40
2017-12-31T07:09:05.359Z,995.39
2017-12-31T07:10:05.334Z,995.40
2017-12-31T07:11:05.316Z,995.32
2017-12-31T07:12:05.330Z,995.32
2017-12-31T07:13:05.277Z,995.40
2017-12-31T07:14:05.265Z,995.33
2017-12-31T07:15:05.260Z,995.32
2017-12-31T07:16:05.224Z,995.32
2017-12-31T07:17:05.204Z,995.37
2017-12-31T07:18:05.239Z,995.41
2017-12-31T07:19:05.166Z,995.39
2017-12-31T07:20:05.146Z,995.42
2017-12-31T07:21:05.131Z,995.44
2017-12-31T07:22:05.114Z,995.48
2017-12-31T07:23:05.094Z,995.42
2017-12-31T07:24:05.075Z,995.55
2017-12-31T07:25:05.054Z,995.49
2017-12-31T07:26:05.037Z,995.54
2017-12-31T07:27:05.025Z,995.46
2017-12-31T07:28:05.003Z,995.49
2017-12-31T07:29:04.994Z,995.46
2017-12-31T07:30:04.970Z,995.44
2017-12-31T07:31:04.944Z,995.47
2017-12-31T07:32:04.926Z,995.40
2017-12-31T07:33:04.907Z,995.34
2017-12-31T07:34:04.897Z,995.36
2017-12-31T07:35:04.871Z,995.32
2017-12-31T07:36:04.862Z,995.36
2017-12-31T07:37:04.888Z,995.38
2017-12-31T07:38:04.818Z,995.38
2017-12-31T07:39:04.801Z,995.36
2017-12-31T07:40:04.782Z,995.43
2017-12-31T07:41:04.771Z,995.37
2017-12-31T07:42:04.743Z,995.42
2017-12-31T07:43:04.726Z,995.40
2017-12-31T07:44:04.706Z,995.45
2017-12-31T07:45:04.690Z,995.43
2017-12-31T07:46:04.681Z,995.33
2017-12-31T07:47:04.652Z,995.42
2017-12-31T07:48:04.633Z,995.45
2017-12-31T07:49:04.615Z,995.46
2017-12-31T07:50:04.598Z,995.53
2017-12-31T07:51:04.579Z,995.50
2017-12-31T07:52:04.568Z,995.43
2017-12-31T07:53:04.542Z,995.49
2017-12-31T07:54:04.529Z,995.47
2017-12-31T07:55:04.504Z,995.44
2017-12-31T07:56:04.492Z,995.46
2017-12-31T07:57:04.470Z,995.46
2017-12-31T07:58:04.448Z,995.50
2017-12-31T07:59:04.430Z,995.53
2017-12-31T08:00:04.413Z,995.57
2017-12-31T08:01:04.407Z,995.59
2017-12-31T08:02:04.377Z,995.59
2017-12-31T08:03:04.357Z,995.53
2017-12-31T08:04:04.447Z,995.50
2017-12-31T08:05:04.322Z,995.50
2017-12-31T08:06:04.314Z,995.49
2017-12-31T08:07:04.355Z,995.31
2017-12-31T08:08:04.266Z,995.59
2017-12-31T08:09:04.248Z,995.58
2017-12-31T08:10:04.231Z,995.59
2017-12-31T08:11:04.217Z,995.51
2017-12-31T08:12:04.197Z,995.62
2017-12-31T08:13:04.177Z,995.61
2017-12-31T08:14:04.159Z,995.61
2017-12-31T08:15:04.146Z,995.69
2017-12-31T08:16:04.121Z,995.58
2017-12-31T08:17:04.113Z,995.46
2017-12-31T08:18:04.084Z,995.59
2017-12-31T08:19:04.075Z,995.63
2017-12-31T08:20:04.050Z,995.70
2017-12-31T08:21:04.029Z,995.65
2017-12-31T08:22:04.044Z,995.71
2017-12-31T08:23:03.998Z,995.72
2017-12-31T08:24:03.978Z,995.62
2017-12-31T08:25:03.958Z,995.66
2017-12-31T08:26:03.948Z,995.70
2017-12-31T08:27:03.925Z,995.71
2017-12-31T08:28:03.906Z,995.76
2017-12-31T08:29:03.888Z,995.81
2017-12-31T08:30:03.866Z,995.77
2017-12-31T08:31:03.858Z,995.75
2017-12-31T08:32:03.838Z,995.75
2017-12-31T08:33:03.823Z,995.75
2017-12-31T08:34:03.792Z,995.75
2017-12-31T08:35:03.778Z,995.76
2017-12-31T08:36:03.756Z,995.78
2017-12-31T08:37:03.738Z,995.81
2017-12-31T08:38:03.724Z,995.73
2017-12-31T08:39:03.702Z,995.70
2017-12-31T08:40:03.700Z,995.85
2017-12-31T08:41:03.665Z,995.81
2017-12-31T08:42:03.648Z,995.73
2017-12-31T08:43:03.644Z,995.77
2017-12-31T08:44:03.611Z,995.75
2017-12-31T08:45:03.591Z,995.78
2017-12-31T08:46:03.578Z,995.69
2017-12-31T08:47:03.564Z,995.75
2017-12-31T08:48:03.541Z,995.76
2017-12-31T08:49:03.520Z,995.70
2017-12-31T08:50:03.654Z,995.78
2017-12-31T08:51:03.482Z,995.77
2017-12-31T08:52:03.466Z,995.84
2017-12-31T08:53:03.551Z,995.77
2017-12-31T08:54:03.437Z,995.78
2017-12-31T08:55:03.415Z,995.71
2017-12-31T08:56:03.399Z,995.75
2017-12-31T08:57:03.372Z,995.67
2017-12-31T08:58:03.355Z,995.71
2017-12-31T08:59:03.346Z,995.70
2017-12-31T09:00:03.322Z,995.68
2017-12-31T09:01:03.302Z,995.70
2017-12-31T09:02:03.295Z,995.72
2017-12-31T09:03:03.274Z,995.69
2017-12-31T09:04:03.249Z,995.68
2017-12-31T09:05:03.229Z,995.60
2017-12-31T09:06:03.219Z,995.68
2017-12-31T09:07:03.193Z,995.73
2017-12-31T09:08:03.177Z,995.65
2017-12-31T09:09:03.157Z,995.69
2017-12-31T09:10:03.154Z,995.66
2017-12-31T09:11:03.119Z,995.65
2017-12-31T09:12:03.222Z,995.63
2017-12-31T09:13:03.088Z,995.69
2017-12-31T09:14:03.076Z,995.66
2017-12-31T09:15:03.054Z,995.67
2017-12-31T09:16:03.032Z,995.73
2017-12-31T09:17:03.014Z,995.66
2017-12-31T09:18:02.997Z,995.70
2017-12-31T09:19:02.976Z,995.65
2017-12-31T09:20:02.962Z,995.60
2017-12-31T09:21:02.946Z,995.62
2017-12-31T09:22:02.927Z,995.57
2017-12-31T09:23:02.906Z,995.56
2017-12-31T09:24:02.888Z,995.58
2017-12-31T09:25:02.871Z,995.52
2017-12-31T09:26:02.865Z,995.55
2017-12-31T09:27:02.857Z,995.57
2017-12-31T09:28:02.818Z,995.57
2017-12-31T09:29:02.798Z,995.57
2017-12-31T09:30:02.781Z,995.53
2017-12-31T09:31:02.765Z,995.63
2017-12-31T09:32:02.744Z,995.58
2017-12-31T09:33:02.743Z,995.63
2017-12-31T09:34:02.709Z,995.57
2017-12-31T09:35:02.694Z,995.54
2017-12-31T09:36:02.727Z,995.63
2017-12-31T09:37:02.658Z,995.52
2017-12-31T09:38:02.640Z,995.57
2017-12-31T09:39:02.735Z,995.58
2017-12-31T09:40:02.605Z,995.51
2017-12-31T09:41:02.585Z,995.53
2017-12-31T09:42:02.616Z,995.55
2017-12-31T09:43:02.552Z,995.53
2017-12-31T09:44:02.543Z,995.55
2017-12-31T09:45:02.525Z,995.54
2017-12-31T09:46:02.499Z,995.52
2017-12-31T09:47:02.483Z,995.56
2017-12-31T09:48:02.478Z,995.59
2017-12-31T09:49:02.446Z,995.56
2017-12-31T09:50:02.427Z,995.51
2017-12-31T09:51:02.413Z,995.54
2017-12-31T09:52:02.395Z,995.47
2017-12-31T09:53:02.377Z,995.48
2017-12-31T09:54:02.356Z,995.52
2017-12-31T09:55:02.343Z,995.47
2017-12-31T09:56:02.325Z,995.55
2017-12-31T09:57:02.305Z,995.49
2017-12-31T09:58:02.373Z,995.46
2017-12-31T09:59:02.281Z,995.46
2017-12-31T10:00:02.254Z,995.45
2017-12-31T10:01:02.261Z,995.51
2017-12-31T10:02:02.216Z,995.49
2017-12-31T10:03:02.202Z,995.45
2017-12-31T10:04:02.183Z,995.51
2017-12-31T10:05:02.163Z,995.39
2017-12-31T10:06:02.145Z,995.43
2017-12-31T10:07:02.130Z,995.43
2017-12-31T10:08:02.110Z,995.37
2017-12-31T10:09:02.093Z,995.43
2017-12-31T10:10:02.077Z,995.39
2017-12-31T10:11:02.059Z,995.40
2017-12-31T10:12:02.058Z,995.46
2017-12-31T10:13:02.024Z,995.36
2017-12-31T10:14:02.004Z,995.31
2017-12-31T10:15:01.990Z,995.33
2017-12-31T10:16:01.969Z,995.28
2017-12-31T10:17:01.977Z,995.40
2017-12-31T10:18:01.934Z,995.33
2017-12-31T10:19:01.919Z,995.27
2017-12-31T10:20:01.900Z,995.30
2017-12-31T10:21:01.881Z,995.25
2017-12-31T10:22:01.863Z,995.21
2017-12-31T10:23:01.848Z,995.25
2017-12-31T10:24:01.835Z,995.31
2017-12-31T10:25:01.809Z,995.25
2017-12-31T10:26:01.794Z,995.33
2017-12-31T10:27:01.778Z,995.19
2017-12-31T10:28:01.769Z,995.19
2017-12-31T10:29:01.739Z,995.14
2017-12-31T10:30:01.722Z,995.17
2017-12-31T10:31:01.707Z,995.10
2017-12-31T10:32:01.693Z,995.10
2017-12-31T10:33:01.670Z,995.16
2017-12-31T10:34:01.652Z,995.14
2017-12-31T10:35:01.637Z,995.05
2017-12-31T10:36:01.616Z,995.10
2017-12-31T10:37:01.601Z,995.04
2017-12-31T10:38:01.584Z,995.10
2017-12-31T10:39:01.568Z,995.07
2017-12-31T10:40:01.554Z,994.98
2017-12-31T10:41:01.528Z,995.05
2017-12-31T10:42:01.512Z,995.01
2017-12-31T10:43:01.496Z,995.04
2017-12-31T10:44:01.627Z,995.08
2017-12-31T10:45:01.462Z,994.92
2017-12-31T10:46:01.441Z,994.94
2017-12-31T10:47:01.538Z,994.83
2017-12-31T10:48:01.404Z,994.73
2017-12-31T10:49:01.386Z,994.70
2017-12-31T10:50:01.379Z,994.75
2017-12-31T10:51:01.355Z,994.76
2017-12-31T10:52:01.334Z,994.70
2017-12-31T10:53:01.317Z,994.67
2017-12-31T10:54:01.296Z,994.75
2017-12-31T10:55:01.290Z,994.77
2017-12-31T10:56:01.263Z,994.80
2017-12-31T10:57:01.247Z,994.83
2017-12-31T10:58:01.228Z,994.80
2017-12-31T10:59:01.212Z,994.66
2017-12-31T11:00:01.195Z,994.76
2017-12-31T11:01:01.180Z,994.68
2017-12-31T11:02:01.162Z,994.81
2017-12-31T11:03:01.143Z,994.69
2017-12-31T11:04:01.127Z,994.60
2017-12-31T11:05:01.132Z,994.71
2017-12-31T11:06:01.095Z,994.74
2017-12-31T11:07:01.079Z,994.70
2017-12-31T11:08:01.073Z,994.78
2017-12-31T11:09:01.041Z,994.72
2017-12-31T11:10:01.029Z,994.75
2017-12-31T11:11:01.066Z,994.70
2017-12-31T11:12:00.990Z,994.58
2017-12-31T11:13:00.986Z,994.70
2017-12-31T11:14:01.007Z,994.71
2017-12-31T11:15:00.941Z,994.77
2017-12-31T11:16:00.925Z,994.74
2017-12-31T11:17:00.913Z,994.66
2017-12-31T11:18:00.889Z,994.65
2017-12-31T11:19:00.875Z,994.68
2017-12-31T11:20:00.859Z,994.56
2017-12-31T11:21:00.840Z,994.64
2017-12-31T11:22:00.831Z,994.66
2017-12-31T11:23:00.824Z,994.62
2017-12-31T11:24:00.803Z,994.60
2017-12-31T11:25:00.785Z,994.57
2017-12-31T11:26:00.759Z,994.61
2017-12-31T11:27:00.742Z,994.65
2017-12-31T11:28:00.730Z,994.61
2017-12-31T11:29:00.709Z,994.53
2017-12-31T11:30:00.691Z,994.47
2017-12-31T11:31:00.678Z,994.48
2017-12-31T11:32:00.659Z,994.50
2017-12-31T11:33:00.660Z,994.57
2017-12-31T11:34:00.629Z,994.52
2017-12-31T11:35:00.619Z,994.53
2017-12-31T11:36:00.634Z,994.50
2017-12-31T11:37:00.580Z,994.59
2017-12-31T11:38:00.559Z,994.56
2017-12-31T11:39:00.541Z,994.38
2017-12-31T11:40:00.530Z,994.42
2017-12-31T11:41:00.509Z,994.39
2017-12-31T11:42:00.504Z,994.28
2017-12-31T11:43:00.491Z,994.32
2017-12-31T11:44:00.465Z,994.30
2017-12-31T11:45:00.460Z,994.22
2017-12-31T11:46:00.426Z,994.08
2017-12-31T11:47:00.410Z,994.13
2017-12-31T11:48:00.396Z,994.12
2017-12-31T11:49:00.375Z,994.14
2017-12-31T11:50:00.360Z,994.17
2017-12-31T11:51:00.345Z,994.05
2017-12-31T11:52:00.329Z,993.95
2017-12-31T11:53:00.319Z,994.06
2017-12-31T11:54:00.302Z,993.89
2017-12-31T11:55:00.278Z,994.00
2017-12-31T11:56:00.259Z,993.84
2017-12-31T11:57:00.244Z,993.80
2017-12-31T11:58:00.228Z,993.70
2017-12-31T11:59:00.211Z,993.75
2017-12-31T12:00:00.225Z,993.68
2017-12-31T12:01:00.176Z,993.57
2017-12-31T12:02:00.164Z,993.51
2017-12-31T12:03:00.152Z,993.52
2017-12-31T12:04:00.128Z,993.59
2017-12-31T12:05:00.113Z,993.61
2017-12-31T12:06:00.098Z,993.49
2017-12-31T12:07:00.079Z,993.49
2017-12-31T12:08:00.065Z,993.51
2017-12-31T12:09:00.048Z,993.51
2017-12-31T12:10:00.047Z,993.44
2017-12-31T12:11:00.017Z,993.54
2017-12-31T12:12:00.005Z,993.62
2017-12-31T12:12:59.986Z,993.53
2017-12-31T12:13:59.974Z,993.55
2017-12-31T12:14:59.954Z,993.61
2017-12-31T12:15:59.935Z,993.49
2017-12-31T12:16:59.922Z,993.54
2017-12-31T12:17:59.904Z,993.51
2017-12-31T12:18:59.891Z,993.64
2017-12-31T12:19:59.884Z,993.65
2017-12-31T12:20:59.852Z,993.61
2017-12-31T12:21:59.924Z,993.57
2017-12-31T12:22:59.823Z,993.64
2017-12-31T12:23:59.803Z,993.66
2017-12-31T12:24:59.795Z,993.57
2017-12-31T12:25:59.949Z,993.52
2017-12-31T12:26:59.755Z,993.62
2017-12-31T12:27:59.737Z,993.56